Time;durP1;ratioP1;P1;durP2;ratioP2;P2;SDS_P1;SDS_P2;PMS_P1;PMS_P2;Temp;Humidity;BMP_temperature;BMP_pressure;BME280_temperature;BME280_humidity;BME280_pressure;Samples;Min_cycle;Max_cycle;Signal;HPM_P1;HPM_P2
2022/05/10 00:02:23;;;;;;;21.77;15.57;;;;;;;13.65;87.75;101857.34;5262063;28;20903;-65
2022/05/10 00:04:54;;;;;;;21.48;15.80;;;;;;;13.56;86.76;101865.16;5268585;28;20387;-65
2022/05/10 00:07:31;;;;;;;17.52;14.35;;;;;;;13.51;86.62;101863.69;5266820;28;20422;-65
2022/05/10 00:10:07;;;;;;;19.67;15.35;;;;;;;13.50;87.67;101864.66;5266498;28;20514;-65
2022/05/10 00:12:38;;;;;;;20.48;15.07;;;;;;;13.45;87.47;101861.44;5271606;28;20051;-65
2022/05/10 00:15:12;;;;;;;17.65;14.73;;;;;;;13.44;86.56;101864.22;5263895;28;20107;-65
2022/05/10 00:17:44;;;;;;;19.25;16.38;;;;;;;13.47;86.52;101850.63;5266874;28;20028;-65
2022/05/10 00:20:20;;;;;;;18.85;15.52;;;;;;;13.41;88.48;101851.91;5273738;28;20020;-65
2022/05/10 00:22:51;;;;;;;21.33;16.02;;;;;;;13.34;88.07;101853.31;5261744;28;20093;-65
2022/05/10 00:25:26;;;;;;;22.33;15.75;;;;;;;13.31;87.39;101846.38;5268631;28;20124;-65
2022/05/10 00:27:57;;;;;;;18.85;15.85;;;;;;;13.28;87.75;101845.69;5261505;28;20039;-65
2022/05/10 00:30:29;;;;;;;21.50;16.10;;;;;;;13.25;88.20;101840.53;5264941;28;20542;-65
2022/05/10 00:33:00;;;;;;;18.88;16.88;;;;;;;13.27;89.27;101839.50;5261919;28;20020;-65
2022/05/10 00:35:34;;;;;;;27.00;17.40;;;;;;;13.27;89.82;101836.81;5256970;28;20052;-65
2022/05/10 00:38:06;;;;;;;;;;;;;;;13.38;86.37;101836.03;5270595;28;20024;-65
2022/05/10 00:40:38;;;;;;;23.27;17.08;;;;;;;13.16;88.42;101831.34;5270629;28;19962;-65
2022/05/10 00:43:16;;;;;;;22.80;17.63;;;;;;;13.18;89.07;101828.56;5273068;28;20032;-65
2022/05/10 00:45:56;;;;;;;23.25;17.63;;;;;;;13.18;90.23;101829.44;5272169;28;20039;-64
2022/05/10 00:48:34;;;;;;;24.30;16.70;;;;;;;13.09;90.35;101828.25;5274421;28;20024;-65
2022/05/10 00:51:20;;;;;;;22.10;17.85;;;;;;;13.04;89.75;101830.41;5269033;28;20036;-65
2022/05/10 00:54:19;;;;;;;24.67;17.15;;;;;;;13.03;89.14;101822.47;5258188;28;20116;-65
2022/05/10 00:57:06;;;;;;;22.23;17.08;;;;;;;12.90;90.15;101822.50;5262869;28;20446;-65
2022/05/10 00:59:45;;;;;;;22.70;17.42;;;;;;;12.90;90.89;101827.84;5258439;28;20771;-65
2022/05/10 01:02:31;;;;;;;22.13;17.25;;;;;;;12.81;90.15;101820.44;5265215;28;20035;-65
2022/05/10 01:05:27;;;;;;;23.60;18.50;;;;;;;12.78;89.57;101818.00;5276329;28;20524;-65
2022/05/10 01:08:08;;;;;;;23.92;18.02;;;;;;;12.77;91.07;101817.16;5274197;28;20028;-65
2022/05/10 01:10:53;;;;;;;24.48;18.65;;;;;;;12.76;91.32;101812.75;5271813;28;20291;-65
2022/05/10 01:13:35;;;;;;;22.50;18.08;;;;;;;12.73;91.66;101807.59;5273153;28;20032;-65
2022/05/10 01:16:16;;;;;;;28.63;19.20;;;;;;;12.73;91.50;101810.28;5265568;28;20052;-65
2022/05/10 01:18:48;;;;;;;27.27;19.38;;;;;;;12.66;89.21;101806.34;5273864;28;20028;-65
2022/05/10 01:21:28;;;;;;;26.38;18.75;;;;;;;12.67;90.71;101806.22;5274271;28;20071;-65
2022/05/10 01:24:21;;;;;;;23.35;18.73;;;;;;;12.68;91.27;101804.41;5268151;28;20178;-65
2022/05/10 01:27:18;;;;;;;25.40;18.90;;;;;;;12.66;89.03;101784.94;5268324;28;20135;-65
2022/05/10 01:29:56;;;;;;;24.65;18.95;;;;;;;12.59;91.40;101799.69;5263256;28;20040;-65
2022/05/10 01:35:54;;;;;;;26.17;18.67;;;;;;;12.50;92.32;101787.78;5267825;28;20040;-64
2022/05/10 01:38:40;;;;;;;24.55;19.23;;;;;;;12.62;92.42;101784.28;5265026;28;20054;-64
2022/05/10 01:41:21;;;;;;;24.27;19.23;;;;;;;12.58;93.57;101773.88;5266765;28;20055;-64
2022/05/10 01:44:16;;;;;;;25.25;19.55;;;;;;;12.53;92.65;101780.41;5270400;28;20517;-64
2022/05/10 01:46:54;;;;;;;25.92;20.15;;;;;;;12.52;93.67;101783.19;5262996;28;20033;-65
2022/05/10 01:49:30;;;;;;;25.25;19.80;;;;;;;12.51;94.13;101778.81;5268552;28;20056;-65
2022/05/10 01:52:27;;;;;;;27.45;20.90;;;;;;;12.52;93.17;101765.34;5267375;28;20024;-65
2022/05/10 01:55:48;;;;;;;30.42;20.00;;;;;;;12.52;91.69;101767.13;5265778;28;20583;-64
2022/05/10 01:58:28;;;;;;;23.50;19.48;;;;;;;12.48;92.60;101750.44;5192062;28;20043;-65
2022/05/10 02:01:04;;;;;;;27.63;19.65;;;;;;;12.47;92.38;101755.91;5266151;28;20371;-65
2022/05/10 02:03:42;;;;;;;30.52;20.70;;;;;;;12.44;91.51;101762.31;5275356;28;20596;-65
2022/05/10 02:06:26;;;;;;;27.80;21.33;;;;;;;12.56;92.80;101757.94;5275002;28;20032;-65
2022/05/10 02:09:12;;;;;;;30.20;20.35;;;;;;;12.57;93.56;101758.78;5267504;28;20031;-64
2022/05/10 02:11:51;;;;;;;26.90;20.92;;;;;;;12.54;94.91;101758.03;5279246;28;20082;-64
2022/05/10 02:14:38;;;;;;;27.23;21.83;;;;;;;12.54;93.74;101754.50;5273991;28;20044;-64
2022/05/10 02:17:15;;;;;;;27.95;21.27;;;;;;;12.57;95.52;101748.94;5271559;28;20048;-65
2022/05/10 02:20:00;;;;;;;24.33;19.98;;;;;;;12.57;94.98;101742.72;5268481;28;20024;-65
2022/05/10 02:22:40;;;;;;;23.17;19.63;;;;;;;12.55;94.59;101745.50;5279261;28;20036;-64
2022/05/10 02:25:22;;;;;;;25.77;20.02;;;;;;;12.55;94.27;101740.16;5269743;28;20032;-65
2022/05/10 02:27:59;;;;;;;23.95;20.35;;;;;;;12.53;92.97;101742.94;5271616;28;20040;-65
2022/05/10 02:30:35;;;;;;;24.60;20.50;;;;;;;12.62;93.54;101745.91;5267161;28;20074;-65
2022/05/10 02:33:12;;;;;;;27.60;21.13;;;;;;;12.61;94.29;101736.19;5271068;28;20020;-65
2022/05/10 02:35:51;;;;;;;27.50;21.10;;;;;;;12.65;95.66;101729.66;5284874;28;20494;-65
2022/05/10 02:38:29;;;;;;;25.63;20.23;;;;;;;12.60;92.79;101721.97;5274112;28;20635;-65
2022/05/10 02:41:04;;;;;;;27.67;20.98;;;;;;;12.68;94.61;101724.94;5271870;28;20024;-65
2022/05/10 02:43:43;;;;;;;26.85;20.60;;;;;;;12.62;94.77;101728.06;5271196;28;20036;-64
2022/05/10 02:46:15;;;;;;;28.35;20.80;;;;;;;12.60;92.19;101716.59;5271691;28;20055;-65
2022/05/10 02:48:48;;;;;;;25.52;19.70;;;;;;;12.69;92.78;101721.28;5266917;28;20949;-65
2022/05/10 02:51:19;;;;;;;29.33;22.05;;;;;;;12.63;94.47;101719.03;5269043;28;20045;-65
2022/05/10 02:53:51;;;;;;;25.13;21.02;;;;;;;12.65;95.00;101713.59;5263867;28;20032;-65
2022/05/10 02:56:26;;;;;;;24.75;19.98;;;;;;;12.74;93.50;101708.41;5262082;28;20094;-64
2022/05/10 02:59:04;;;;;;;26.08;20.30;;;;;;;12.74;92.88;101697.72;5261578;28;20033;-65
2022/05/10 03:01:57;;;;;;;26.05;20.75;;;;;;;12.73;94.21;101704.06;5257906;28;20025;-65
2022/05/10 03:04:34;;;;;;;25.13;20.17;;;;;;;12.73;95.72;101705.84;5260276;28;20040;-65
2022/05/10 03:07:08;;;;;;;25.15;19.92;;;;;;;12.66;93.46;101705.44;5262189;28;20032;-65
2022/05/10 03:09:39;;;;;;;23.10;19.43;;;;;;;12.65;93.06;101702.88;5263990;28;20032;-65
2022/05/10 03:12:11;;;;;;;25.63;18.90;;;;;;;12.70;92.55;101695.38;5261149;28;20294;-65
2022/05/10 03:14:42;;;;;;;25.08;18.42;;;;;;;12.79;93.74;101689.38;5261035;28;20414;-65
2022/05/10 03:17:13;;;;;;;23.70;18.50;;;;;;;12.72;91.63;101694.28;5264510;28;20141;-65
2022/05/10 03:19:46;;;;;;;23.17;18.83;;;;;;;12.77;91.50;101687.75;5259204;28;20040;-65
2022/05/10 03:22:17;;;;;;;24.83;18.77;;;;;;;12.80;91.05;101690.22;5260079;28;20735;-65
2022/05/10 03:24:49;;;;;;;24.90;18.65;;;;;;;12.80;91.21;101682.19;5266535;28;20025;-65
2022/05/10 03:27:20;;;;;;;26.63;18.88;;;;;;;12.89;90.95;101689.53;5265324;28;20032;-64
2022/05/10 03:29:51;;;;;;;25.25;20.05;;;;;;;12.86;90.58;101679.88;5262258;28;20028;-65
2022/05/10 03:32:22;;;;;;;26.67;19.13;;;;;;;12.85;92.56;101677.34;5265943;28;20024;-65
2022/05/10 03:34:54;;;;;;;23.27;18.40;;;;;;;12.99;90.22;101674.50;5267679;28;20113;-64
2022/05/10 03:37:28;;;;;;;25.17;19.52;;;;;;;12.94;93.57;101676.66;5264489;28;20052;-65
2022/05/10 03:39:59;;;;;;;25.58;19.27;;;;;;;12.94;93.47;101668.63;5281545;28;20043;-65
2022/05/10 03:42:32;;;;;;;24.77;18.33;;;;;;;12.94;92.57;101668.63;5261812;28;20033;-65
2022/05/10 03:45:04;;;;;;;25.00;18.73;;;;;;;12.93;94.00;101673.13;5268095;28;20024;-65
2022/05/10 03:47:36;;;;;;;25.63;18.90;;;;;;;12.93;90.78;101672.28;5266348;28;20040;-65
2022/05/10 03:50:09;;;;;;;25.35;18.50;;;;;;;12.99;90.76;101671.81;5278484;28;20020;-65
2022/05/10 03:52:41;;;;;;;23.17;18.38;;;;;;;13.01;92.45;101667.19;5266817;28;20516;-65
2022/05/10 03:55:15;;;;;;;26.92;19.10;;;;;;;12.99;91.73;101673.66;5270508;28;20029;-64
2022/05/10 03:57:46;;;;;;;23.90;17.65;;;;;;;12.95;90.83;101665.00;5273037;28;20024;-65
2022/05/10 04:00:22;;;;;;;25.85;18.95;;;;;;;13.02;92.46;101666.25;5264644;28;20031;-65
2022/05/10 04:02:55;;;;;;;24.80;19.33;;;;;;;12.99;90.82;101662.94;5273238;28;20171;-65
2022/05/10 04:05:27;;;;;;;25.50;18.43;;;;;;;12.92;90.02;101658.03;5269192;28;20103;-65
2022/05/10 04:07:58;;;;;;;25.83;18.45;;;;;;;12.93;90.39;101661.56;5266374;28;20028;-65
2022/05/10 04:10:30;;;;;;;24.65;18.45;;;;;;;12.99;93.48;101655.75;5262249;28;20845;-65
2022/05/10 04:13:01;;;;;;;24.67;18.75;;;;;;;12.97;90.05;101654.16;5270328;28;20107;-65
2022/05/10 04:15:32;;;;;;;28.15;19.67;;;;;;;13.06;91.80;101657.00;5264713;28;20097;-65
2022/05/10 04:18:04;;;;;;;26.88;18.90;;;;;;;13.00;89.95;101660.16;5267421;28;20032;-65
2022/05/10 04:20:35;;;;;;;25.90;18.67;;;;;;;13.07;90.22;101656.03;5269378;28;20089;-65
2022/05/10 04:23:06;;;;;;;22.73;17.95;;;;;;;13.14;91.74;101659.97;5266833;28;20031;-65
2022/05/10 04:25:37;;;;;;;24.70;18.73;;;;;;;13.15;91.61;101655.47;5279598;28;20043;-65
2022/05/10 04:28:09;;;;;;;25.95;18.23;;;;;;;13.19;90.63;101654.25;5266658;28;20542;-65
2022/05/10 04:30:40;;;;;;;26.67;18.95;;;;;;;13.23;90.26;101660.25;5280411;28;20490;-65
2022/05/10 04:33:12;;;;;;;26.25;18.58;;;;;;;13.25;89.52;101653.81;5273194;28;20059;-65
2022/05/10 04:35:43;;;;;;;28.38;19.20;;;;;;;13.37;88.25;101651.22;5275302;28;20032;-65
2022/05/10 04:38:14;;;;;;;22.55;17.52;;;;;;;13.36;87.95;101655.72;5267158;28;20043;-65
2022/05/10 04:43:36;;;;;;;28.05;18.33;;;;;;;13.54;87.65;101648.13;5264347;28;20036;-65
2022/05/10 04:46:08;;;;;;;25.05;17.45;;;;;;;13.57;86.74;101641.66;5254787;28;20404;-65
2022/05/10 04:48:39;;;;;;;25.38;17.70;;;;;;;13.63;86.26;101639.34;5264254;28;21731;-65
2022/05/10 04:51:11;;;;;;;24.15;17.98;;;;;;;13.71;87.90;101645.00;5261511;28;20760;-64
2022/05/10 04:53:42;;;;;;;23.80;17.20;;;;;;;13.70;85.54;101632.53;5266557;28;20028;-65
2022/05/10 04:56:14;;;;;;;26.45;17.35;;;;;;;13.73;85.06;101645.72;5263822;28;20111;-65
2022/05/10 04:58:46;;;;;;;27.30;17.63;;;;;;;13.89;84.72;101634.66;5264731;28;20025;-65
2022/05/10 05:01:18;;;;;;;23.50;16.63;;;;;;;13.88;84.60;101638.34;5264763;28;20044;-65
2022/05/10 05:03:49;;;;;;;26.50;17.10;;;;;;;13.97;85.19;101638.56;5266101;28;20028;-65
2022/05/10 05:06:21;;;;;;;24.10;17.23;;;;;;;14.06;83.86;101644.06;5263260;28;20474;-65
2022/05/10 05:08:53;;;;;;;20.65;16.75;;;;;;;14.17;82.92;101645.03;5263826;28;20713;-65
2022/05/10 05:11:25;;;;;;;25.52;16.42;;;;;;;14.24;83.46;101647.13;5264280;28;20076;-65
2022/05/10 05:13:56;;;;;;;26.15;16.73;;;;;;;14.39;81.82;101649.56;5266260;28;20466;-65
2022/05/10 05:16:27;;;;;;;21.77;15.77;;;;;;;14.43;82.70;101648.34;5263856;28;20076;-65
2022/05/10 05:18:59;;;;;;;19.77;15.63;;;;;;;14.48;81.73;101643.47;5270739;28;20111;-65
2022/05/10 05:21:30;;;;;;;21.10;15.25;;;;;;;14.60;81.28;101645.19;5266764;28;20028;-65
2022/05/10 05:24:01;;;;;;;21.35;14.98;;;;;;;14.66;81.08;101654.59;5270292;28;20039;-65
2022/05/10 05:26:32;;;;;;;20.58;14.85;;;;;;;14.77;80.07;101646.50;5268075;28;20028;-65
2022/05/10 05:29:04;;;;;;;22.73;14.93;;;;;;;14.77;81.28;101653.72;5267738;28;20652;-65
2022/05/10 05:31:35;;;;;;;18.65;14.52;;;;;;;14.84;80.84;101644.16;5267469;28;20447;-65
2022/05/10 05:34:06;;;;;;;19.27;14.98;;;;;;;14.87;80.96;101646.63;5265759;28;20036;-65
2022/05/10 05:36:38;;;;;;;20.88;15.45;;;;;;;15.00;80.99;101651.84;5265573;28;20036;-64
2022/05/10 05:39:09;;;;;;;18.15;14.55;;;;;;;15.05;79.53;101649.59;5277966;28;20127;-65
2022/05/10 05:41:40;;;;;;;17.60;14.40;;;;;;;15.15;80.59;101647.88;5272169;28;20025;-66
2022/05/10 05:44:12;;;;;;;19.13;14.32;;;;;;;15.25;79.76;101645.28;5281464;28;20544;-65
2022/05/10 05:46:43;;;;;;;19.38;14.75;;;;;;;15.31;79.61;101647.44;5277663;28;20032;-64
2022/05/10 05:49:14;;;;;;;18.15;14.85;;;;;;;15.41;78.81;101647.53;5275177;28;20028;-64
2022/05/10 05:51:45;;;;;;;17.58;14.77;;;;;;;15.45;80.39;101638.22;5275048;28;20109;-64
2022/05/10 05:54:19;;;;;;;19.60;14.40;;;;;;;15.62;78.03;101643.00;5282172;28;20078;-65
2022/05/10 05:56:51;;;;;;;19.83;14.75;;;;;;;15.69;79.08;101633.44;5281620;28;20123;-64
2022/05/10 05:59:22;;;;;;;16.58;14.57;;;;;;;15.85;77.81;101622.22;5282180;28;20033;-64
2022/05/10 06:01:53;;;;;;;16.38;13.82;;;;;;;15.88;80.10;101619.28;5274765;28;20100;-64
2022/05/10 06:04:25;;;;;;;15.65;13.10;;;;;;;15.99;78.45;101609.41;5277484;28;20466;-64
2022/05/10 06:06:56;;;;;;;15.70;13.63;;;;;;;16.17;76.80;101615.88;5278694;28;20031;-64
2022/05/10 06:09:28;;;;;;;17.13;12.98;;;;;;;16.27;75.96;101619.47;5282432;28;20477;-64
2022/05/10 06:11:59;;;;;;;17.58;13.07;;;;;;;16.40;75.69;101630.00;5272454;28;20086;-64
2022/05/10 06:14:30;;;;;;;17.45;12.88;;;;;;;16.46;75.86;101631.31;5278979;28;20036;-64
2022/05/10 06:17:03;;;;;;;16.67;11.30;;;;;;;16.61;74.72;101623.69;5280468;28;20041;-64
2022/05/10 06:19:36;;;;;;;13.82;11.50;;;;;;;16.77;75.06;101632.09;5270863;28;20093;-64
2022/05/10 06:22:09;;;;;;;17.17;12.25;;;;;;;16.91;74.33;101627.31;5276660;28;20056;-64
2022/05/10 06:24:42;;;;;;;13.40;11.13;;;;;;;17.00;74.28;101629.19;5278174;28;20047;-64
2022/05/10 06:27:15;;;;;;;14.00;10.95;;;;;;;17.14;74.82;101623.38;5279361;28;20048;-64
2022/05/10 06:29:46;;;;;;;13.77;10.45;;;;;;;17.24;73.44;101620.69;5278570;28;20032;-64
2022/05/10 06:32:26;;;;;;;14.50;11.02;;;;;;;17.25;73.80;101628.63;5277206;28;20106;-64
2022/05/10 06:34:58;;;;;;;15.30;10.52;;;;;;;17.40;72.61;101626.34;5270569;28;20437;-65
2022/05/10 06:40:20;;;;;;;13.25;9.73;;;;;;;17.67;72.39;101624.75;5268019;28;20040;-64
2022/05/10 06:42:51;;;;;;;13.15;9.88;;;;;;;17.76;72.17;101612.25;5269438;28;20033;-65
2022/05/10 06:45:23;;;;;;;13.75;9.95;;;;;;;17.85;72.34;101607.84;5268953;28;20035;-64
2022/05/10 06:47:54;;;;;;;11.15;9.20;;;;;;;17.94;71.31;101612.38;5270152;28;20024;-64
2022/05/10 06:50:26;;;;;;;10.88;9.15;;;;;;;18.13;70.13;101620.41;5273080;28;20024;-64
2022/05/10 06:52:59;;;;;;;12.50;8.65;;;;;;;18.25;70.06;101610.25;5268494;28;20033;-64
2022/05/10 06:55:32;;;;;;;11.55;8.43;;;;;;;18.42;70.40;101614.03;5270613;28;20024;-64
2022/05/10 06:58:05;;;;;;;10.88;8.32;;;;;;;18.56;69.12;101612.66;5268478;28;20111;-65
2022/05/10 07:00:38;;;;;;;11.52;8.18;;;;;;;18.65;68.57;101605.50;5270205;28;20028;-64
2022/05/10 07:03:16;;;;;;;11.30;8.52;;;;;;;18.68;70.53;101613.28;5270228;28;20048;-65
2022/05/10 07:05:47;;;;;;;14.05;8.02;;;;;;;18.80;68.92;101601.31;5271889;28;20028;-65
2022/05/10 07:08:18;;;;;;;13.90;8.90;;;;;;;18.85;69.70;101607.13;5270034;28;20494;-64
2022/05/10 07:10:49;;;;;;;12.30;7.82;;;;;;;19.12;66.88;101597.22;5269356;28;20040;-66
2022/05/10 07:13:24;;;;;;;12.05;8.18;;;;;;;19.24;66.94;101597.84;5269385;28;20036;-64
2022/05/10 07:15:56;;;;;;;9.70;7.82;;;;;;;19.41;65.39;101596.97;5268296;28;20074;-64
2022/05/10 07:18:28;;;;;;;11.57;7.93;;;;;;;19.45;67.11;101590.25;5271406;28;20445;-65
2022/05/10 07:20:59;;;;;;;9.15;7.70;;;;;;;19.56;63.86;101587.28;5265078;28;20456;-64
2022/05/10 07:23:31;;;;;;;10.93;6.82;;;;;;;19.68;64.14;101585.16;5269004;28;20150;-64
2022/05/10 07:26:04;;;;;;;10.82;7.28;;;;;;;19.80;65.13;101579.50;5268424;28;20421;-64
2022/05/10 07:28:35;;;;;;;12.02;7.10;;;;;;;20.04;62.90;101585.06;5269784;28;20466;-64
2022/05/10 07:31:06;;;;;;;9.48;7.13;;;;;;;20.19;62.38;101579.88;5266366;28;20530;-64
2022/05/10 07:33:37;;;;;;;9.93;7.30;;;;;;;20.22;63.10;101578.72;5268418;28;20033;-65
2022/05/10 07:36:24;;;;;;;9.32;7.35;;;;;;;20.34;62.63;101585.53;5268820;28;20058;-64
2022/05/10 07:38:55;;;;;;;9.60;6.70;;;;;;;20.43;61.32;101579.13;5270598;28;20040;-65
2022/05/10 07:41:27;;;;;;;8.00;6.57;;;;;;;20.60;61.13;101584.66;5271151;28;20032;-65
2022/05/10 07:43:58;;;;;;;9.55;6.20;;;;;;;20.71;63.22;101584.31;5268544;28;20115;-65
2022/05/10 07:46:29;;;;;;;9.88;6.40;;;;;;;20.87;59.93;101587.06;5267528;28;20063;-65
2022/05/10 07:49:01;;;;;;;7.88;5.78;;;;;;;21.05;58.99;101581.47;5264649;28;20036;-65
2022/05/10 07:51:32;;;;;;;8.52;6.07;;;;;;;21.10;60.95;101579.13;5271784;28;20024;-65
2022/05/10 07:54:04;;;;;;;9.07;5.82;;;;;;;21.23;60.71;101570.47;5270881;28;20029;-64
2022/05/10 07:56:37;;;;;;;9.48;5.90;;;;;;;21.28;59.69;101568.09;5273927;28;20046;-65
2022/05/10 07:59:08;;;;;;;12.20;6.07;;;;;;;21.40;58.23;101565.03;5270050;28;20406;-69
2022/05/10 08:01:39;;;;;;;8.90;5.72;;;;;;;21.46;58.32;101576.09;5274360;28;20029;-63
2022/05/10 08:04:11;;;;;;;10.02;6.10;;;;;;;21.60;57.44;101571.84;5281590;28;20032;-63
2022/05/10 08:06:42;;;;;;;10.93;5.90;;;;;;;21.65;56.30;101572.16;5272587;28;20402;-63
2022/05/10 08:09:14;;;;;;;10.70;5.55;;;;;;;21.60;57.77;101577.25;5271854;28;20043;-63
2022/05/10 08:11:46;;;;;;;9.18;5.50;;;;;;;21.66;58.91;101579.28;5265845;28;20039;-65
2022/05/10 08:14:17;;;;;;;10.98;5.72;;;;;;;21.67;58.33;101574.69;5276843;28;20036;-63
2022/05/10 08:16:49;;;;;;;8.00;5.72;;;;;;;21.52;60.20;101569.97;5275451;28;20052;-63
2022/05/10 08:19:20;;;;;;;6.82;5.20;;;;;;;21.69;56.28;101568.09;5273241;28;20284;-65
2022/05/10 08:21:55;;;;;;;8.15;5.82;;;;;;;21.71;55.15;101576.06;5275783;28;20071;-64
2022/05/10 08:24:27;;;;;;;10.32;5.47;;;;;;;21.74;57.12;101565.69;5276342;28;20028;-70
2022/05/10 08:26:59;;;;;;;10.95;5.25;;;;;;;21.59;58.28;101566.56;5274177;28;20425;-65
2022/05/10 08:29:30;;;;;;;8.40;5.78;;;;;;;21.59;59.26;101567.41;5276205;28;20024;-64
2022/05/10 08:32:02;;;;;;;10.85;5.93;;;;;;;21.66;54.87;101565.69;5276610;28;20077;-64
2022/05/10 08:34:35;;;;;;;11.65;5.65;;;;;;;21.59;56.39;101569.28;5274958;28;20056;-65
2022/05/10 08:37:06;;;;;;;8.70;5.13;;;;;;;21.55;57.65;101552.47;5273875;28;20044;-65
2022/05/10 08:39:37;;;;;;;8.15;5.38;;;;;;;21.50;57.21;101550.28;5275352;28;20402;-65
2022/05/10 08:42:20;;;;;;;10.15;6.10;;;;;;;21.54;58.45;101548.94;5272810;28;20056;-65
2022/05/10 08:45:01;;;;;;;11.43;5.47;;;;;;;21.59;58.41;101547.56;5273859;28;20042;-65
2022/05/10 08:47:35;;;;;;;7.90;4.90;;;;;;;21.61;57.44;101549.09;5269641;28;20111;-65
2022/05/10 08:50:10;;;;;;;8.05;5.38;;;;;;;21.63;57.04;101549.78;5275481;28;20054;-65
2022/05/10 08:52:45;;;;;;;7.85;5.20;;;;;;;21.71;55.07;101552.47;5274604;28;20035;-65
2022/05/10 08:55:23;;;;;;;6.80;5.10;;;;;;;21.88;55.76;101547.84;5269124;28;20028;-65
2022/05/10 08:58:05;;;;;;;7.28;4.90;;;;;;;21.90;58.79;101545.78;5276322;28;20047;-65
2022/05/10 09:00:49;;;;;;;9.38;5.07;;;;;;;22.12;57.17;101537.88;5271724;28;20021;-65
2022/05/10 09:03:20;;;;;;;;;;;;;;;22.34;58.25;101539.00;5278568;28;20036;-65
2022/05/10 09:05:59;;;;;;;8.68;4.78;;;;;;;22.36;55.57;101539.69;5274421;28;19942;-65
2022/05/10 09:08:46;;;;;;;7.05;4.60;;;;;;;22.47;56.25;101539.25;5270690;28;20399;-65
2022/05/10 09:11:18;;;;;;;8.60;5.20;;;;;;;22.48;52.13;101538.25;5270257;28;20115;-65
2022/05/10 09:13:50;;;;;;;7.07;4.97;;;;;;;22.63;53.73;101537.50;5273580;28;20031;-65
2022/05/10 09:16:21;;;;;;;7.40;4.80;;;;;;;22.81;51.99;101526.28;5275177;28;20398;-65
2022/05/10 09:18:52;;;;;;;5.95;5.10;;;;;;;22.92;51.87;101527.75;5276369;28;20031;-64
2022/05/10 09:21:32;;;;;;;8.90;5.47;;;;;;;22.96;52.64;101529.09;5276357;28;20032;-65
2022/05/10 09:24:28;;;;;;;10.93;5.68;;;;;;;23.06;51.82;101521.53;5278613;28;20033;-65
2022/05/10 09:27:10;;;;;;;14.25;5.60;;;;;;;22.99;51.66;101534.13;5283410;28;20044;-65
2022/05/10 09:29:46;;;;;;;13.50;5.75;;;;;;;23.15;50.87;101523.16;5275536;28;20037;-65
2022/05/10 09:35:25;;;;;;;10.60;5.45;;;;;;;23.29;51.75;101522.31;5275493;28;20044;-66
2022/05/10 09:38:08;;;;;;;7.93;5.50;;;;;;;23.37;52.26;101506.94;5276784;28;20107;-65
2022/05/10 09:40:48;;;;;;;10.13;5.68;;;;;;;23.33;53.60;101514.63;5275301;28;21893;-65
2022/05/10 09:43:23;;;;;;;6.40;4.53;;;;;;;23.47;54.33;101519.28;5280434;28;20029;-65
2022/05/10 09:46:07;;;;;;;9.88;5.50;;;;;;;23.43;55.00;101509.78;5276462;28;20021;-65
2022/05/10 09:48:40;;;;;;;6.90;5.10;;;;;;;23.17;54.37;101517.53;5279573;28;20119;-64
2022/05/10 09:51:39;;;;;;;9.15;5.53;;;;;;;23.37;51.76;101513.22;5277339;28;20047;-65
2022/05/10 09:54:30;;;;;;;11.95;5.43;;;;;;;23.41;51.91;101511.00;5277760;28;20040;-64
2022/05/10 09:57:02;;;;;;;18.98;6.30;;;;;;;23.41;51.40;101500.09;5280165;28;20032;-65
2022/05/10 09:59:46;;;;;;;17.13;6.05;;;;;;;23.60;52.13;101496.81;5277846;28;20393;-65
2022/05/10 10:02:31;;;;;;;12.50;6.20;;;;;;;23.69;49.82;101490.25;5270015;28;20036;-65
2022/05/10 10:05:25;;;;;;;7.70;5.55;;;;;;;23.70;51.44;101496.53;5275560;28;20103;-64
2022/05/10 10:07:58;;;;;;;9.55;5.30;;;;;;;23.69;49.59;101482.06;5277918;28;20039;-64
2022/05/10 10:10:35;;;;;;;11.65;5.38;;;;;;;23.73;49.90;101481.72;5277799;28;20032;-65
2022/05/10 10:13:27;;;;;;;8.88;5.30;;;;;;;23.79;50.21;101486.44;5278331;28;20089;-64
2022/05/10 10:16:00;;;;;;;10.02;4.88;;;;;;;23.86;49.21;101476.47;5277650;28;20075;-64
2022/05/10 10:18:49;;;;;;;9.73;4.82;;;;;;;24.10;49.79;101472.56;5276828;28;20131;-64
2022/05/10 10:21:37;;;;;;;10.52;5.38;;;;;;;24.20;49.38;101483.16;5273823;28;20028;-64
2022/05/10 10:24:15;;;;;;;13.07;4.72;;;;;;;24.17;49.43;101470.75;5278781;28;20048;-64
2022/05/10 10:26:52;;;;;;;9.23;4.68;;;;;;;24.50;46.62;101483.91;5278122;28;20139;-65
2022/05/10 10:29:35;;;;;;;12.05;4.90;;;;;;;24.33;46.22;101486.03;5274019;28;20035;-65
2022/05/10 10:32:24;;;;;;;11.50;4.97;;;;;;;24.36;45.73;101484.81;5272596;28;20048;-64
2022/05/10 10:35:04;;;;;;;14.18;4.85;;;;;;;24.20;46.50;101483.16;5279189;28;20482;-65
2022/05/10 10:37:45;;;;;;;10.30;4.60;;;;;;;24.35;44.70;101481.22;5277239;28;20029;-65
2022/05/10 10:40:31;;;;;;;13.85;5.10;;;;;;;24.51;45.58;101484.75;5280109;28;20025;-65
2022/05/10 10:43:28;;;;;;;11.85;4.68;;;;;;;24.65;45.84;101470.25;5295651;28;20033;-65
2022/05/10 10:46:15;;;;;;;10.70;4.78;;;;;;;24.68;44.60;101469.88;5276869;28;20771;-65
2022/05/10 10:48:48;;;;;;;12.98;5.30;;;;;;;24.76;44.31;101475.19;5269182;28;20020;-65
2022/05/10 10:51:23;;;;;;;8.82;5.10;;;;;;;24.83;45.06;101464.31;5277731;28;20033;-65
2022/05/10 10:53:54;;;;;;;11.73;5.30;;;;;;;24.84;47.11;101461.38;5275004;28;20040;-64
2022/05/10 10:57:03;;;;;;;9.55;4.70;;;;;;;25.13;45.90;101458.69;5278360;28;20028;-65
2022/05/10 10:59:37;;;;;;;12.73;5.03;;;;;;;25.24;44.71;101458.16;5277103;28;20310;-65
2022/05/10 11:02:30;;;;;;;14.43;5.10;;;;;;;25.24;43.07;101456.28;5271442;28;20115;-65
2022/05/10 11:05:16;;;;;;;17.10;5.75;;;;;;;25.25;44.75;101457.09;5278167;28;20139;-65
2022/05/10 11:08:11;;;;;;;9.45;4.90;;;;;;;25.20;43.42;101429.53;5275336;28;20032;-65
2022/05/10 11:10:49;;;;;;;15.15;5.10;;;;;;;25.16;43.11;101445.47;5276308;28;20135;-65
2022/05/10 11:13:51;;;;;;;15.20;4.68;;;;;;;25.31;44.62;101434.44;5276632;28;20037;-65
2022/05/10 11:16:33;;;;;;;10.93;5.03;;;;;;;25.24;45.20;101431.69;5276282;28;20064;-65
2022/05/10 11:19:13;;;;;;;15.15;4.85;;;;;;;25.08;45.52;101444.75;5276549;28;20051;-65
2022/05/10 11:22:12;;;;;;;11.25;5.18;;;;;;;25.11;45.94;101436.19;5276726;28;20407;-64
2022/05/10 11:25:19;;;;;;;13.30;5.32;;;;;;;25.22;46.09;101431.03;5267345;28;20525;-65
2022/05/10 11:28:01;;;;;;;12.55;5.30;;;;;;;25.21;44.48;101426.56;5266643;28;20032;-65
2022/05/10 11:30:58;;;;;;;8.93;5.03;;;;;;;25.33;44.05;101423.31;5274899;28;20090;-65
2022/05/10 11:33:53;;;;;;;8.02;4.60;;;;;;;25.50;43.66;101421.94;5280884;28;20020;-64
2022/05/10 11:36:42;;;;;;;11.23;5.00;;;;;;;25.63;44.96;101419.28;5278068;28;20478;-65
2022/05/10 11:39:28;;;;;;;9.35;4.93;;;;;;;25.62;44.48;101422.25;5277493;28;20037;-65
2022/05/10 11:42:11;;;;;;;11.10;4.75;;;;;;;25.70;44.57;101413.84;5275611;28;20036;-65
2022/05/10 11:45:06;;;;;;;15.82;4.97;;;;;;;25.77;43.61;101408.41;5275606;28;20035;-65
2022/05/10 11:47:48;;;;;;;6.60;4.20;;;;;;;25.46;44.84;101409.75;5275135;28;20048;-65
2022/05/10 11:51:38;;;;;;;11.48;4.68;;;;;;;25.52;40.79;101406.19;5277591;28;20089;-63
2022/05/10 11:54:11;;;;;;;9.25;4.50;;;;;;;25.57;43.43;101400.97;5274584;28;20048;-65
2022/05/10 11:56:44;;;;;;;9.48;4.88;;;;;;;25.55;42.15;101403.06;5275121;28;20039;-65
2022/05/10 11:59:26;;;;;;;16.60;5.20;;;;;;;25.61;42.26;101398.69;5267781;28;20470;-65
2022/05/10 12:01:59;;;;;;;13.88;5.22;;;;;;;25.56;42.11;101401.16;5274271;28;20406;-65
2022/05/10 12:04:45;;;;;;;9.35;4.78;;;;;;;25.75;42.51;101407.75;5273613;28;20074;-65
2022/05/10 12:07:19;;;;;;;8.48;4.90;;;;;;;25.60;42.54;101408.78;5272205;28;20024;-65
2022/05/10 12:10:03;;;;;;;9.38;4.30;;;;;;;25.65;41.87;101399.13;5275700;28;20028;-65
2022/05/10 12:12:56;;;;;;;7.65;4.72;;;;;;;25.68;43.06;101393.22;5271513;28;20035;-65